createdAt,value
2023-03-05T00:01:50.642Z,17.50
2023-03-05T00:03:54.238Z,16.17
2023-03-05T00:05:59.267Z,17.85
2023-03-05T00:08:01.383Z,16.80
2023-03-05T00:10:05.934Z,17.88
2023-03-05T00:12:07.900Z,16.90
2023-03-05T00:14:10.404Z,16.30
2023-03-05T00:16:16.012Z,16.95
2023-03-05T00:18:17.862Z,17.27
2023-03-05T00:20:19.582Z,16.50
2023-03-05T00:22:21.208Z,16.80
2023-03-05T00:24:22.845Z,15.57
2023-03-05T00:26:25.962Z,17.60
2023-03-05T00:28:27.590Z,16.23
2023-03-05T00:30:29.256Z,15.95
2023-03-05T00:32:31.013Z,16.77
2023-03-05T00:34:32.659Z,16.70
2023-03-05T00:36:34.889Z,17.02
2023-03-05T00:38:39.684Z,16.38
2023-03-05T00:40:44.642Z,16.10
2023-03-05T00:42:49.694Z,14.95
2023-03-05T00:44:51.308Z,16.10
2023-03-05T00:46:53.156Z,14.95
2023-03-05T00:48:55.641Z,15.98
2023-03-05T00:50:57.320Z,15.25
2023-03-05T00:52:58.965Z,14.65
2023-03-05T00:55:00.527Z,15.73
2023-03-05T00:57:02.274Z,16.17
2023-03-05T00:59:03.945Z,16.85
2023-03-05T01:01:06.543Z,15.40
2023-03-05T01:03:08.181Z,16.63
2023-03-05T01:05:13.992Z,16.42
2023-03-05T01:07:15.670Z,16.08
2023-03-05T01:09:17.549Z,16.25
2023-03-05T01:11:19.134Z,15.80
2023-03-05T01:13:23.838Z,14.52
2023-03-05T01:15:25.809Z,14.98
2023-03-05T01:17:27.509Z,14.93
2023-03-05T01:19:29.066Z,15.43
2023-03-05T01:21:37.081Z,15.35
2023-03-05T01:23:38.682Z,14.55
2023-03-05T01:25:40.595Z,16.25
2023-03-05T01:27:42.282Z,14.65
2023-03-05T01:29:43.942Z,15.02
2023-03-05T01:31:49.079Z,15.63
2023-03-05T01:33:54.452Z,15.00
2023-03-05T01:35:56.102Z,15.80
2023-03-05T01:37:57.747Z,15.68
2023-03-05T01:39:59.347Z,15.15
2023-03-05T01:42:00.942Z,15.57
2023-03-05T01:44:02.905Z,15.38
2023-03-05T01:46:13.507Z,14.70
2023-03-05T01:48:18.249Z,15.27
2023-03-05T01:50:23.209Z,13.93
2023-03-05T01:52:25.926Z,14.13
2023-03-05T01:54:47.736Z,15.60
2023-03-05T01:56:50.673Z,15.10
2023-03-05T01:58:52.367Z,16.73
2023-03-05T02:00:55.291Z,14.35
2023-03-05T02:02:57.769Z,15.50
2023-03-05T02:05:03.721Z,15.95
2023-03-05T02:07:05.657Z,15.63
2023-03-05T02:09:07.441Z,16.45
2023-03-05T02:11:12.257Z,16.00
2023-03-05T02:13:17.442Z,14.95
2023-03-05T02:15:19.400Z,14.82
2023-03-05T02:17:21.159Z,15.30
2023-03-05T02:19:22.756Z,15.27
2023-03-05T02:21:29.773Z,14.57
2023-03-05T02:23:36.471Z,15.55
2023-03-05T02:25:38.171Z,15.32
2023-03-05T02:27:41.272Z,15.07
2023-03-05T02:29:46.657Z,15.98
2023-03-05T02:31:48.334Z,15.32
2023-03-05T02:33:50.407Z,15.70
2023-03-05T02:35:52.286Z,15.60
2023-03-05T02:37:53.929Z,14.45
2023-03-05T02:39:55.476Z,16.02
2023-03-05T02:41:57.345Z,16.90
2023-03-05T02:43:59.029Z,17.13
2023-03-05T02:46:00.902Z,16.42
2023-03-05T02:48:02.653Z,17.50
2023-03-05T02:50:05.364Z,17.38
2023-03-05T02:52:07.501Z,16.85
2023-03-05T02:54:09.155Z,16.70
2023-03-05T02:56:10.915Z,17.60
2023-03-05T02:58:12.536Z,17.75
2023-03-05T03:00:14.922Z,19.38
2023-03-05T03:02:17.166Z,19.35
2023-03-05T03:04:18.780Z,18.65
2023-03-05T03:06:23.412Z,18.60
2023-03-05T03:08:24.987Z,18.40
2023-03-05T03:10:26.556Z,18.05
2023-03-05T03:12:28.228Z,18.48
2023-03-05T03:14:39.203Z,18.25
2023-03-05T03:16:40.824Z,19.95
2023-03-05T03:18:42.900Z,20.48
2023-03-05T03:20:44.491Z,19.77
2023-03-05T03:22:46.741Z,19.75
2023-03-05T03:24:54.409Z,19.70
2023-03-05T03:26:56.039Z,19.25
2023-03-05T03:28:57.911Z,18.63
2023-03-05T03:30:59.582Z,17.88
2023-03-05T03:33:01.204Z,18.05
2023-03-05T03:35:03.170Z,18.88
2023-03-05T03:37:04.919Z,19.58
2023-03-05T03:39:06.674Z,19.95
2023-03-05T03:41:08.969Z,20.00
2023-03-05T03:43:10.652Z,18.52
2023-03-05T03:45:12.894Z,19.60
2023-03-05T03:47:14.510Z,18.80
2023-03-05T03:49:19.239Z,19.90
2023-03-05T03:51:20.860Z,19.73
2023-03-05T03:53:22.512Z,19.95
2023-03-05T03:55:24.103Z,21.80
2023-03-05T03:57:30.120Z,20.25
2023-03-05T03:59:31.752Z,21.17
2023-03-05T04:01:33.571Z,20.75
2023-03-05T04:03:35.093Z,20.40
2023-03-05T04:05:41.510Z,20.48
2023-03-05T04:07:43.149Z,19.65
2023-03-05T04:09:44.836Z,21.48
2023-03-05T04:11:46.494Z,21.75
2023-03-05T04:13:48.509Z,23.17
2023-03-05T04:15:50.426Z,19.40
2023-03-05T04:17:54.949Z,22.13
2023-03-05T04:19:56.553Z,23.00
2023-03-05T04:21:58.952Z,22.35
2023-03-05T04:24:00.617Z,22.60
2023-03-05T04:26:02.242Z,21.17
2023-03-05T04:28:03.832Z,22.25
2023-03-05T04:30:06.670Z,20.92
2023-03-05T04:32:08.430Z,19.30
2023-03-05T04:34:10.026Z,21.52
2023-03-05T04:36:11.819Z,19.77
2023-03-05T04:38:13.814Z,19.92
2023-03-05T04:40:15.754Z,20.17
2023-03-05T04:42:18.231Z,19.27
2023-03-05T04:44:19.841Z,19.13
2023-03-05T04:46:21.666Z,19.48
2023-03-05T04:48:23.344Z,20.27
2023-03-05T04:50:24.985Z,20.42
2023-03-05T04:52:27.136Z,19.42
2023-03-05T04:54:28.714Z,19.00
2023-03-05T04:56:30.357Z,19.52
2023-03-05T04:58:32.000Z,19.42
2023-03-05T05:00:33.565Z,18.17
2023-03-05T05:02:35.154Z,18.65
2023-03-05T05:04:36.790Z,17.88
2023-03-05T05:06:38.362Z,18.20
2023-03-05T05:08:39.961Z,19.23
2023-03-05T05:10:41.553Z,19.10
2023-03-05T05:12:43.188Z,18.23
2023-03-05T05:14:44.841Z,17.02
2023-03-05T05:16:46.458Z,19.65
2023-03-05T05:18:48.182Z,17.45
2023-03-05T05:20:49.896Z,18.15
2023-03-05T05:22:51.475Z,18.42
2023-03-05T05:24:53.239Z,18.20
2023-03-05T05:26:55.772Z,16.80
2023-03-05T05:28:57.374Z,17.50
2023-03-05T05:30:59.050Z,16.50
2023-03-05T05:33:00.647Z,17.02
2023-03-05T05:35:02.281Z,17.67
2023-03-05T05:37:06.839Z,18.20
2023-03-05T05:39:11.620Z,17.92
2023-03-05T05:41:15.800Z,17.83
2023-03-05T05:43:17.395Z,17.63
2023-03-05T05:45:19.187Z,16.00
2023-03-05T05:47:20.977Z,15.65
2023-03-05T05:49:22.586Z,16.48
2023-03-05T05:51:24.484Z,17.10
2023-03-05T05:53:26.469Z,17.25
2023-03-05T05:55:28.128Z,15.60
2023-03-05T05:57:29.679Z,14.50
2023-03-05T05:59:31.232Z,15.48
2023-03-05T06:01:34.356Z,16.58
2023-03-05T06:03:35.918Z,16.63
2023-03-05T06:05:37.475Z,16.13
2023-03-05T06:07:39.137Z,14.13
2023-03-05T06:09:40.710Z,16.60
2023-03-05T06:11:42.407Z,14.73
2023-03-05T06:13:44.266Z,14.95
2023-03-05T06:15:45.843Z,14.40
2023-03-05T06:17:51.114Z,15.40
2023-03-05T06:19:55.047Z,13.40
2023-03-05T06:24:01.203Z,14.65
2023-03-05T06:26:05.000Z,14.50
2023-03-05T06:28:06.585Z,15.85
2023-03-05T06:30:10.412Z,14.55
2023-03-05T06:34:13.636Z,14.15
2023-03-05T06:36:17.766Z,15.82
2023-03-05T06:38:19.354Z,14.02
2023-03-05T06:40:21.076Z,13.70
2023-03-05T06:42:22.668Z,13.35
2023-03-05T06:44:24.401Z,15.30
2023-03-05T06:46:28.401Z,15.25
2023-03-05T06:48:30.050Z,12.43
2023-03-05T06:50:35.230Z,13.68
2023-03-05T06:52:38.877Z,14.38
2023-03-05T06:54:40.518Z,14.57
2023-03-05T06:56:44.819Z,13.25
2023-03-05T06:59:05.529Z,13.10
2023-03-05T07:01:07.587Z,14.43
2023-03-05T07:03:09.186Z,14.52
2023-03-05T07:05:11.133Z,13.23
2023-03-05T07:07:12.739Z,13.05
2023-03-05T07:09:15.329Z,13.15
2023-03-05T07:11:19.530Z,13.80
2023-03-05T07:13:21.141Z,14.02
2023-03-05T07:15:22.830Z,13.05
2023-03-05T07:17:24.471Z,13.07
2023-03-05T07:19:26.044Z,14.43
2023-03-05T07:21:29.928Z,14.45
2023-03-05T07:25:36.139Z,15.02
2023-03-05T07:27:38.708Z,15.30
2023-03-05T07:29:40.412Z,14.85
2023-03-05T07:31:42.001Z,14.98
2023-03-05T07:33:43.671Z,15.70
2023-03-05T07:35:45.430Z,15.95
2023-03-05T07:37:47.100Z,15.90
2023-03-05T07:39:48.940Z,16.15
2023-03-05T07:41:51.787Z,15.10
2023-03-05T07:43:54.653Z,16.63
2023-03-05T07:45:56.285Z,17.35
2023-03-05T07:47:57.851Z,17.73
2023-03-05T07:49:59.442Z,17.92
2023-03-05T07:52:01.134Z,17.67
2023-03-05T07:54:02.844Z,17.70
2023-03-05T07:56:08.088Z,19.25
2023-03-05T07:58:10.219Z,18.02
2023-03-05T08:00:12.441Z,18.13
2023-03-05T08:02:14.390Z,18.02
2023-03-05T08:04:16.161Z,18.33
2023-03-05T08:06:17.785Z,17.95
2023-03-05T08:08:19.523Z,19.30
2023-03-05T08:10:21.131Z,17.50
2023-03-05T08:12:23.352Z,17.90
2023-03-05T08:14:24.930Z,18.25
2023-03-05T08:16:27.136Z,17.80
2023-03-05T08:18:33.520Z,18.08
2023-03-05T08:20:36.543Z,18.55
2023-03-05T08:22:38.548Z,18.23
2023-03-05T08:24:40.152Z,18.50
2023-03-05T08:26:41.976Z,18.30
2023-03-05T08:28:44.016Z,17.15
2023-03-05T08:30:49.328Z,18.17
2023-03-05T08:32:51.012Z,18.30
2023-03-05T08:34:57.905Z,19.08
2023-03-05T08:36:59.496Z,17.58
2023-03-05T08:39:01.275Z,18.38
2023-03-05T08:41:03.738Z,18.52
2023-03-05T08:43:07.238Z,19.35
2023-03-05T08:45:09.466Z,17.75
2023-03-05T08:47:11.081Z,18.92
2023-03-05T08:49:19.093Z,17.35
2023-03-05T08:51:25.903Z,19.10
2023-03-05T08:53:27.555Z,17.45
2023-03-05T08:55:29.153Z,18.27
2023-03-05T08:57:30.781Z,16.75
2023-03-05T08:59:32.411Z,19.05
2023-03-05T09:01:34.428Z,16.65
2023-03-05T09:03:36.191Z,18.10
2023-03-05T09:05:39.118Z,17.83
2023-03-05T09:07:40.860Z,17.63
2023-03-05T09:09:42.488Z,16.27
2023-03-05T09:11:47.409Z,17.73
2023-03-05T09:13:49.064Z,17.00
2023-03-05T09:16:01.542Z,16.98
2023-03-05T09:18:03.307Z,16.17
2023-03-05T09:20:06.388Z,17.42
2023-03-05T09:22:08.012Z,17.10
2023-03-05T09:24:09.681Z,16.38
2023-03-05T09:26:13.426Z,16.40
2023-03-05T09:28:15.492Z,16.23
2023-03-05T09:30:17.392Z,16.63
2023-03-05T09:32:19.251Z,14.95
2023-03-05T09:34:21.595Z,15.70
2023-03-05T09:36:26.117Z,15.75
2023-03-05T09:38:28.551Z,15.88
2023-03-05T09:41:07.862Z,15.85
2023-03-05T09:43:17.311Z,14.93
2023-03-05T09:45:33.717Z,15.38
2023-03-05T09:47:45.934Z,16.23
2023-03-05T09:49:47.453Z,14.93
2023-03-05T09:51:53.030Z,14.57
2023-03-05T09:54:16.729Z,14.70
2023-03-05T09:56:31.197Z,13.93
2023-03-05T09:58:39.658Z,13.02
2023-03-05T10:00:45.242Z,13.38
2023-03-05T10:02:51.594Z,14.07
2023-03-05T10:05:21.278Z,13.57
2023-03-05T10:07:32.494Z,14.35
2023-03-05T10:09:47.505Z,14.00
2023-03-05T10:11:59.622Z,13.75
2023-03-05T10:14:01.847Z,14.02
2023-03-05T10:16:18.431Z,13.65
2023-03-05T10:18:55.511Z,14.00
2023-03-05T10:21:26.081Z,14.38
2023-03-05T10:23:50.725Z,14.35
2023-03-05T10:28:06.176Z,15.55
2023-03-05T10:30:34.194Z,14.50
2023-03-05T10:33:04.061Z,13.73
2023-03-05T10:35:20.528Z,13.73
2023-03-05T10:37:56.232Z,12.98
2023-03-05T10:40:11.204Z,11.50
2023-03-05T10:42:37.048Z,12.40
2023-03-05T10:44:48.395Z,12.50
2023-03-05T10:46:50.327Z,13.35
2023-03-05T10:49:00.615Z,12.05
2023-03-05T10:51:24.529Z,11.48
2023-03-05T10:53:29.401Z,11.65
2023-03-05T10:55:30.989Z,10.60
2023-03-05T10:57:32.829Z,11.25
2023-03-05T10:59:34.430Z,11.50
2023-03-05T11:01:37.554Z,12.30
2023-03-05T11:03:58.630Z,12.75
2023-03-05T11:06:02.061Z,12.43
2023-03-05T11:08:23.899Z,11.48
2023-03-05T11:10:25.604Z,11.85
2023-03-05T11:12:28.914Z,12.00
2023-03-05T11:14:33.302Z,12.07
2023-03-05T11:16:46.960Z,12.70
2023-03-05T11:18:48.773Z,12.25
2023-03-05T11:20:50.671Z,13.07
2023-03-05T11:23:16.535Z,11.38
2023-03-05T11:25:21.503Z,13.18
2023-03-05T11:27:35.898Z,12.20
2023-03-05T11:29:48.279Z,12.02
2023-03-05T11:31:50.649Z,12.20
2023-03-05T11:34:08.538Z,11.80
2023-03-05T11:36:23.129Z,12.57
2023-03-05T11:38:27.073Z,12.90
2023-03-05T11:40:31.488Z,12.05
2023-03-05T11:42:33.366Z,12.40
2023-03-05T11:44:43.087Z,12.70
2023-03-05T11:46:48.583Z,12.50
2023-03-05T11:48:50.659Z,12.68
2023-03-05T11:50:55.623Z,11.40
2023-03-05T11:53:31.509Z,12.02
2023-03-05T11:55:47.086Z,12.05
2023-03-05T11:58:07.116Z,11.38
2023-03-05T12:00:14.215Z,12.13
2023-03-05T12:02:34.058Z,12.27
2023-03-05T12:04:35.883Z,10.93
2023-03-05T12:06:43.539Z,10.77
2023-03-05T12:08:49.056Z,11.75
2023-03-05T12:10:50.666Z,10.75
2023-03-05T12:13:15.680Z,10.07
2023-03-05T12:15:47.762Z,11.45
2023-03-05T12:17:57.087Z,12.13
2023-03-05T12:20:06.794Z,12.02
2023-03-05T12:22:23.290Z,11.98
2023-03-05T12:24:27.907Z,13.05
2023-03-05T12:27:03.873Z,14.25
2023-03-05T12:29:05.704Z,11.85
2023-03-05T12:31:10.522Z,12.05
2023-03-05T12:33:39.020Z,11.52
2023-03-05T12:35:41.261Z,9.90
2023-03-05T12:37:48.913Z,10.05
2023-03-05T12:39:58.317Z,10.85
2023-03-05T12:41:59.921Z,11.25
2023-03-05T12:44:07.662Z,10.93
2023-03-05T12:46:33.088Z,10.57
2023-03-05T12:48:42.713Z,10.98
2023-03-05T12:50:45.110Z,11.20
2023-03-05T12:52:46.763Z,12.38
2023-03-05T12:55:00.496Z,10.85
2023-03-05T12:57:16.232Z,11.23
2023-03-05T12:59:21.087Z,10.25
2023-03-05T13:01:37.804Z,10.13
2023-03-05T13:03:49.681Z,10.63
2023-03-05T13:05:53.967Z,10.90
2023-03-05T13:08:10.698Z,10.30
2023-03-05T13:10:27.261Z,10.40
2023-03-05T13:12:30.133Z,11.32
2023-03-05T13:14:49.201Z,11.73
2023-03-05T13:16:50.799Z,12.13
2023-03-05T13:18:53.708Z,12.43
2023-03-05T13:21:02.608Z,12.25
2023-03-05T13:23:23.521Z,12.20
2023-03-05T13:25:25.198Z,13.02
2023-03-05T13:27:31.231Z,11.40
2023-03-05T13:29:32.895Z,12.02
2023-03-05T13:31:53.811Z,12.18
2023-03-05T13:34:17.212Z,11.23
2023-03-05T13:36:19.273Z,12.02
2023-03-05T13:38:28.668Z,11.73
2023-03-05T13:40:32.519Z,11.60
2023-03-05T13:44:36.705Z,13.68
2023-03-05T13:46:39.972Z,14.82
2023-03-05T13:48:41.698Z,14.00
2023-03-05T13:50:43.302Z,13.77
2023-03-05T13:52:44.886Z,13.10
2023-03-05T13:54:46.489Z,14.65
2023-03-05T13:57:32.193Z,12.68
2023-03-05T13:59:35.840Z,14.20
2023-03-05T14:01:45.816Z,13.18
2023-03-05T14:03:52.210Z,12.48
2023-03-05T14:05:54.353Z,14.30
2023-03-05T14:07:56.729Z,14.07
2023-03-05T14:09:59.873Z,14.73
2023-03-05T14:12:06.831Z,13.82
2023-03-05T14:14:16.703Z,14.68
2023-03-05T14:16:32.723Z,14.35
2023-03-05T14:18:34.785Z,12.88
2023-03-05T14:20:36.380Z,13.13
2023-03-05T14:22:43.176Z,13.60
2023-03-05T14:24:51.916Z,11.80
2023-03-05T14:27:03.958Z,13.93
2023-03-05T14:29:11.756Z,13.63
2023-03-05T14:31:16.793Z,13.27
2023-03-05T14:33:24.177Z,11.32
2023-03-05T14:35:27.549Z,11.98
2023-03-05T14:37:42.139Z,11.80
2023-03-05T14:39:53.172Z,12.95
2023-03-05T14:41:54.746Z,12.85
2023-03-05T14:43:56.646Z,12.82
2023-03-05T14:45:58.221Z,12.95
2023-03-05T14:48:01.045Z,12.73
2023-03-05T14:50:02.745Z,14.02
2023-03-05T14:52:06.708Z,15.10
2023-03-05T14:54:18.570Z,12.65
2023-03-05T14:56:25.816Z,12.93
2023-03-05T14:58:29.867Z,12.55
2023-03-05T15:00:31.800Z,12.27
2023-03-05T15:02:33.408Z,13.23
2023-03-05T15:04:35.056Z,13.00
2023-03-05T15:06:39.811Z,12.73
2023-03-05T15:08:41.427Z,13.50
2023-03-05T15:10:43.054Z,13.48
2023-03-05T15:12:44.688Z,12.45
2023-03-05T15:14:46.391Z,12.30
2023-03-05T15:16:48.930Z,12.63
2023-03-05T15:18:50.617Z,12.48
2023-03-05T15:20:53.201Z,12.95
2023-03-05T15:22:55.266Z,13.60
2023-03-05T15:24:56.904Z,14.52
2023-03-05T15:26:58.489Z,13.77
2023-03-05T15:29:00.398Z,13.55
2023-03-05T15:31:03.084Z,13.65
2023-03-05T15:33:10.144Z,12.57
2023-03-05T15:35:11.751Z,13.93
2023-03-05T15:37:13.418Z,13.75
2023-03-05T15:39:14.941Z,12.88
2023-03-05T15:41:17.659Z,13.93
2023-03-05T15:43:19.513Z,13.95
2023-03-05T15:45:21.207Z,13.70
2023-03-05T15:47:22.749Z,14.40
2023-03-05T15:49:24.494Z,13.73
2023-03-05T15:51:26.268Z,12.88
2023-03-05T15:53:27.865Z,13.27
2023-03-05T15:55:29.581Z,12.20
2023-03-05T15:57:37.387Z,12.82
2023-03-05T15:59:39.015Z,12.18
2023-03-05T16:01:43.328Z,13.30
2023-03-05T16:03:45.521Z,13.23
2023-03-05T16:05:47.170Z,11.90
2023-03-05T16:07:51.698Z,13.70
2023-03-05T16:09:54.358Z,12.85
2023-03-05T16:11:56.371Z,14.48
2023-03-05T16:13:58.113Z,16.05
2023-03-05T16:15:59.764Z,12.35
2023-03-05T16:18:05.116Z,13.20
2023-03-05T16:20:07.506Z,13.02
2023-03-05T16:22:09.235Z,11.65
2023-03-05T16:24:10.838Z,11.45
2023-03-05T16:26:12.356Z,11.25
2023-03-05T16:28:14.333Z,12.18
2023-03-05T16:30:16.636Z,13.02
2023-03-05T16:32:18.613Z,13.38
2023-03-05T16:34:20.436Z,11.50
2023-03-05T16:36:27.414Z,12.68
2023-03-05T16:38:29.003Z,12.27
2023-03-05T16:40:56.604Z,12.65
2023-03-05T16:42:53.072Z,12.07
2023-03-05T16:44:54.751Z,13.35
2023-03-05T16:46:56.831Z,13.50
2023-03-05T16:48:58.613Z,13.07
2023-03-05T16:51:00.265Z,13.00
2023-03-05T16:53:01.816Z,12.48
2023-03-05T16:55:04.695Z,12.38
2023-03-05T16:57:06.250Z,12.00
2023-03-05T16:59:08.013Z,12.43
2023-03-05T17:01:17.186Z,11.73
2023-03-05T17:03:22.500Z,13.07
2023-03-05T17:05:28.174Z,12.45
2023-03-05T17:07:29.834Z,12.57
2023-03-05T17:09:31.669Z,12.70
2023-03-05T17:11:33.271Z,12.52
2023-03-05T17:13:35.409Z,13.13
2023-03-05T17:15:37.186Z,11.93
2023-03-05T17:17:39.532Z,13.00
2023-03-05T17:19:41.159Z,12.30
2023-03-05T17:21:45.840Z,11.98
2023-03-05T17:23:47.524Z,12.35
2023-03-05T17:25:49.128Z,11.98
2023-03-05T17:27:51.391Z,11.93
2023-03-05T17:29:53.170Z,12.38
2023-03-05T17:31:54.861Z,12.38
2023-03-05T17:33:56.633Z,12.27
2023-03-05T17:35:58.262Z,12.27
2023-03-05T17:38:02.618Z,12.20
2023-03-05T17:40:04.487Z,13.05
2023-03-05T17:42:06.076Z,12.88
2023-03-05T17:44:07.643Z,12.25
2023-03-05T17:46:09.589Z,11.82
2023-03-05T17:48:15.356Z,12.23
2023-03-05T17:50:17.126Z,12.75
2023-03-05T17:52:21.059Z,12.23
2023-03-05T17:56:25.237Z,11.63
2023-03-05T17:58:28.249Z,11.60
2023-03-05T18:00:31.130Z,12.40
2023-03-05T18:02:33.523Z,11.02
2023-03-05T18:04:35.206Z,11.85
2023-03-05T18:06:36.988Z,11.77
2023-03-05T18:08:39.421Z,11.77
2023-03-05T18:10:40.977Z,11.85
2023-03-05T18:12:42.898Z,12.70
2023-03-05T18:14:44.504Z,12.35
2023-03-05T18:16:46.308Z,12.23
2023-03-05T18:18:47.868Z,11.07
2023-03-05T18:20:49.709Z,12.63
2023-03-05T18:22:51.352Z,10.70
2023-03-05T18:24:52.920Z,11.52
2023-03-05T18:26:54.537Z,10.73
2023-03-05T18:28:56.121Z,11.38
2023-03-05T18:30:57.789Z,11.73
2023-03-05T18:33:00.248Z,12.20
2023-03-05T18:35:01.840Z,11.13
2023-03-05T18:37:04.765Z,12.00
2023-03-05T18:39:06.534Z,11.23
2023-03-05T18:41:08.344Z,11.07
2023-03-05T18:43:09.949Z,11.55
2023-03-05T18:45:14.113Z,11.65
2023-03-05T18:47:15.759Z,11.43
2023-03-05T18:49:17.353Z,10.95
2023-03-05T18:51:21.683Z,12.15
2023-03-05T18:53:23.562Z,10.73
2023-03-05T18:55:27.854Z,11.32
2023-03-05T18:57:29.822Z,10.93
2023-03-05T18:59:31.920Z,11.82
2023-03-05T19:01:33.510Z,11.02
2023-03-05T19:03:35.665Z,11.43
2023-03-05T19:05:38.223Z,12.43
2023-03-05T19:07:46.928Z,11.55
2023-03-05T19:09:58.987Z,12.55
2023-03-05T19:12:01.301Z,11.40
2023-03-05T19:14:02.856Z,12.45
2023-03-05T19:16:08.925Z,11.68
2023-03-05T19:18:10.514Z,11.23
2023-03-05T19:20:13.003Z,12.82
2023-03-05T19:22:14.576Z,11.65
2023-03-05T19:24:16.825Z,12.63
2023-03-05T19:26:18.470Z,11.45
2023-03-05T19:28:21.326Z,11.80
2023-03-05T19:30:22.994Z,12.13
2023-03-05T19:32:24.608Z,11.65
2023-03-05T19:34:26.216Z,11.70
2023-03-05T19:36:27.858Z,11.65
2023-03-05T19:38:29.509Z,11.50
2023-03-05T19:40:31.136Z,11.70
2023-03-05T19:42:32.742Z,12.10
2023-03-05T19:44:34.969Z,11.95
2023-03-05T19:46:36.573Z,11.60
2023-03-05T19:48:38.359Z,11.50
2023-03-05T19:50:40.497Z,11.23
2023-03-05T19:52:42.072Z,12.00
2023-03-05T19:54:43.718Z,12.02
2023-03-05T19:56:46.353Z,11.80
2023-03-05T19:58:49.107Z,11.70
2023-03-05T20:00:50.783Z,12.27
2023-03-05T20:02:52.549Z,12.02
2023-03-05T20:04:55.117Z,11.10
2023-03-05T20:06:56.642Z,12.50
2023-03-05T20:08:58.618Z,11.00
2023-03-05T20:11:00.317Z,11.15
2023-03-05T20:13:02.377Z,12.35
2023-03-05T20:15:04.229Z,11.10
2023-03-05T20:17:05.818Z,10.52
2023-03-05T20:19:10.263Z,11.38
2023-03-05T20:21:12.539Z,11.63
2023-03-05T20:23:14.150Z,11.25
2023-03-05T20:25:17.131Z,11.88
2023-03-05T20:27:18.810Z,11.77
2023-03-05T20:29:20.822Z,11.52
2023-03-05T20:31:24.419Z,11.35
2023-03-05T20:33:27.367Z,10.88
2023-03-05T20:35:29.066Z,12.02
2023-03-05T20:38:22.374Z,11.32
2023-03-05T20:40:23.987Z,11.55
2023-03-05T20:42:25.670Z,12.43
2023-03-05T20:44:27.232Z,11.90
2023-03-05T20:46:31.523Z,10.73
2023-03-05T20:48:34.255Z,11.75
2023-03-05T20:50:35.963Z,11.32
2023-03-05T20:52:38.172Z,11.73
2023-03-05T20:54:39.885Z,10.90
2023-03-05T20:56:42.007Z,12.15
2023-03-05T20:58:43.599Z,11.02
2023-03-05T21:00:48.148Z,10.88
2023-03-05T21:02:51.725Z,10.35
2023-03-05T21:04:53.366Z,11.63
2023-03-05T21:06:56.229Z,12.00
2023-03-05T21:08:58.546Z,10.48
2023-03-05T21:11:00.237Z,10.15
2023-03-05T21:13:01.913Z,10.27
2023-03-05T21:15:04.141Z,11.93
2023-03-05T21:17:05.738Z,10.85
2023-03-05T21:19:07.343Z,11.45
2023-03-05T21:21:08.941Z,11.10
2023-03-05T21:23:10.577Z,11.00
2023-03-05T21:25:22.273Z,11.48
2023-03-05T21:27:23.837Z,10.85
2023-03-05T21:29:25.566Z,11.55
2023-03-05T21:31:27.177Z,10.52
2023-03-05T21:33:29.972Z,11.88
2023-03-05T21:35:35.532Z,11.07
2023-03-05T21:37:42.444Z,11.52
2023-03-05T21:39:44.076Z,11.32
2023-03-05T21:41:47.263Z,11.75
2023-03-05T21:43:49.005Z,10.80
2023-03-05T21:45:53.519Z,11.23
2023-03-05T21:47:56.241Z,11.80
2023-03-05T21:49:58.015Z,11.20
2023-03-05T21:52:09.368Z,10.63
2023-03-05T21:54:11.052Z,11.95
2023-03-05T21:56:19.131Z,11.18
2023-03-05T21:58:20.764Z,11.75
2023-03-05T22:00:23.306Z,11.20
2023-03-05T22:02:25.809Z,11.73
2023-03-05T22:04:27.446Z,11.57
2023-03-05T22:06:29.033Z,11.20
2023-03-05T22:08:30.589Z,10.98
2023-03-05T22:10:32.254Z,10.77
2023-03-05T22:13:12.171Z,11.80
2023-03-05T22:15:13.798Z,11.60
2023-03-05T22:17:30.664Z,11.48
2023-03-05T22:19:32.281Z,10.50
2023-03-05T22:21:33.983Z,10.90
2023-03-05T22:23:36.691Z,11.20
2023-03-05T22:25:38.965Z,11.80
2023-03-05T22:27:40.930Z,12.55
2023-03-05T22:29:42.558Z,12.35
2023-03-05T22:31:45.073Z,12.02
2023-03-05T22:33:46.637Z,12.45
2023-03-05T22:35:48.276Z,11.40
2023-03-05T22:37:50.072Z,11.77
2023-03-05T22:39:55.619Z,12.15
2023-03-05T22:41:57.165Z,13.07
2023-03-05T22:43:58.845Z,12.02
2023-03-05T22:46:14.895Z,11.73
2023-03-05T22:48:16.693Z,12.20
2023-03-05T22:50:18.637Z,12.45
2023-03-05T22:52:20.300Z,12.05
2023-03-05T22:54:22.139Z,11.90
2023-03-05T22:56:23.718Z,10.77
2023-03-05T22:58:25.307Z,11.80
2023-03-05T23:00:26.923Z,11.70
2023-03-05T23:02:28.537Z,11.23
2023-03-05T23:04:49.556Z,12.68
2023-03-05T23:06:51.486Z,12.55
2023-03-05T23:08:53.079Z,11.80
2023-03-05T23:10:54.769Z,11.82
2023-03-05T23:12:58.734Z,11.05
